Time;durP1;ratioP1;P1;durP2;ratioP2;P2;SDS_P1;SDS_P2;PMS_P1;PMS_P2;Temp;Humidity;BMP_temperature;BMP_pressure;BME280_temperature;BME280_humidity;BME280_pressure;Samples;Min_cycle;Max_cycle;Signal;HPM_P1;HPM_P2
2022/05/29 00:01:00;;;;;;;6.07;3.10;;;;;;;5.68;86.77;98508.31;4188330;28;20049;-71
2022/05/29 00:03:00;;;;;;;4.53;3.08;;;;;;;5.69;86.30;98504.41;4188437;28;20045;-71
2022/05/29 00:05:00;;;;;;;5.57;2.75;;;;;;;5.70;85.85;98498.56;4188689;28;20380;-71
2022/05/29 00:07:03;;;;;;;3.47;2.95;;;;;;;5.68;86.98;98498.13;4187052;28;20040;-71
2022/05/29 00:09:03;;;;;;;7.03;3.63;;;;;;;5.69;87.02;98501.66;4194960;28;20047;-71
2022/05/29 00:11:06;;;;;;;7.10;3.00;;;;;;;5.63;86.76;98492.88;4201935;28;20040;-71
2022/05/29 00:13:06;;;;;;;6.88;3.40;;;;;;;5.60;87.50;98491.59;4195073;27;20040;-71
2022/05/29 00:15:08;;;;;;;7.20;3.30;;;;;;;5.54;88.02;98484.75;4187745;28;20551;-71
2022/05/29 00:17:09;;;;;;;8.88;3.60;;;;;;;5.49;87.88;98487.75;4187219;28;20106;-71
2022/05/29 00:19:09;;;;;;;4.78;3.38;;;;;;;5.44;88.68;98477.00;4186399;28;20045;-71
2022/05/29 00:21:10;;;;;;;8.52;3.58;;;;;;;5.41;88.48;98477.69;4187683;28;20094;-71
2022/05/29 00:23:10;;;;;;;10.02;4.05;;;;;;;5.39;88.54;98474.50;4187058;28;20377;-71
2022/05/29 00:25:12;;;;;;;11.32;3.63;;;;;;;5.35;89.20;98470.81;4187343;28;20036;-71
2022/05/29 00:27:13;;;;;;;5.43;3.15;;;;;;;5.42;88.25;98476.53;4185879;28;20044;-71
2022/05/29 00:29:13;;;;;;;8.05;3.63;;;;;;;5.36;89.31;98475.97;4187233;28;20361;-71
2022/05/29 00:31:14;;;;;;;7.90;3.80;;;;;;;5.35;88.87;98476.31;4189966;28;20052;-71
2022/05/29 00:33:14;;;;;;;4.75;3.65;;;;;;;5.31;88.99;98472.66;4189527;28;20362;-71
2022/05/29 00:35:15;;;;;;;5.40;3.17;;;;;;;5.25;89.31;98474.81;4187372;28;20465;-71
2022/05/29 00:37:15;;;;;;;6.00;3.45;;;;;;;5.23;89.71;98477.13;4187025;28;20032;-71
2022/05/29 00:39:16;;;;;;;9.13;3.70;;;;;;;5.20;90.23;98466.81;4186164;28;20040;-71
2022/05/29 00:41:28;;;;;;;7.47;3.40;;;;;;;5.17;90.09;98469.47;4189105;28;20129;-71
2022/05/29 00:43:28;;;;;;;6.90;3.60;;;;;;;5.11;89.80;98460.66;4188635;28;20071;-71
2022/05/29 00:45:36;;;;;;;6.90;3.60;;;;;;;5.07;89.79;98467.97;4187158;28;20045;-71
2022/05/29 00:47:37;;;;;;;6.18;3.28;;;;;;;5.05;89.41;98465.56;4188088;28;20510;-71
2022/05/29 00:49:41;;;;;;;6.60;3.45;;;;;;;5.01;88.74;98459.16;4186535;28;20059;-71
2022/05/29 00:51:47;;;;;;;8.57;3.30;;;;;;;5.01;88.64;98459.16;4186622;28;20195;-71
2022/05/29 00:53:47;;;;;;;6.85;4.03;;;;;;;5.00;89.09;98467.72;4186215;28;20048;-71
2022/05/29 00:55:59;;;;;;;9.05;3.45;;;;;;;4.98;89.90;98470.81;4188346;28;20044;-71
2022/05/29 00:58:03;;;;;;;6.18;3.00;;;;;;;4.94;90.42;98467.16;4187889;28;20203;-71
2022/05/29 01:00:07;;;;;;;10.20;3.58;;;;;;;4.87;90.30;98463.38;4185441;28;20097;-71
2022/05/29 01:02:09;;;;;;;9.57;3.85;;;;;;;4.86;90.81;98464.50;4185971;28;20089;-71
2022/05/29 01:04:11;;;;;;;6.22;3.33;;;;;;;4.85;90.54;98457.44;4186895;28;20037;-71
2022/05/29 01:06:12;;;;;;;10.90;3.50;;;;;;;4.77;90.45;98464.59;4184380;27;20631;-71
2022/05/29 01:08:19;;;;;;;9.85;4.80;;;;;;;4.73;92.35;98464.50;4185738;28;20043;-71
2022/05/29 01:10:22;;;;;;;10.38;4.25;;;;;;;4.68;91.71;98453.75;4185481;28;20561;-71
2022/05/29 01:12:46;;;;;;;6.80;3.10;;;;;;;4.71;91.58;98458.53;4186093;28;20473;-71
2022/05/29 01:14:55;;;;;;;5.53;3.42;;;;;;;4.65;91.33;98459.91;4186093;28;20235;-71
2022/05/29 01:16:59;;;;;;;8.02;3.60;;;;;;;4.61;91.30;98460.91;4188224;28;20067;-71
2022/05/29 01:19:27;;;;;;;8.57;3.40;;;;;;;4.53;91.24;98461.81;4185405;28;20052;-71
2022/05/29 01:21:27;;;;;;;7.15;3.25;;;;;;;4.46;92.06;98457.69;4186167;28;20045;-71
2022/05/29 01:23:50;;;;;;;3.55;3.20;;;;;;;4.39;92.13;98456.66;4186095;28;20078;-71
2022/05/29 01:26:09;;;;;;;;;;;;;;;4.34;91.69;98460.38;4186109;28;20037;-71
2022/05/29 01:28:37;;;;;;;6.47;3.78;;;;;;;4.22;92.10;98458.41;4185863;28;19955;-71
2022/05/29 01:30:49;;;;;;;10.00;3.95;;;;;;;4.15;92.13;98460.09;4186621;28;20040;-71
2022/05/29 01:33:04;;;;;;;6.72;3.80;;;;;;;4.10;92.64;98460.28;4185328;28;20083;-71
2022/05/29 01:35:22;;;;;;;6.15;3.58;;;;;;;4.06;90.87;98457.44;4186406;28;20067;-70
2022/05/29 01:37:42;;;;;;;7.25;3.50;;;;;;;4.03;91.21;98457.28;4185746;28;20036;-70
2022/05/29 01:40:01;;;;;;;5.70;2.67;;;;;;;3.93;91.67;98455.78;4185498;28;20056;-71
2022/05/29 01:42:14;;;;;;;10.93;3.97;;;;;;;3.83;94.87;98454.25;4185230;28;20049;-71
2022/05/29 01:44:22;;;;;;;8.63;3.38;;;;;;;3.95;95.82;98457.03;4188277;27;20115;-71
2022/05/29 01:46:30;;;;;;;6.15;3.50;;;;;;;3.92;95.23;98452.22;4186169;28;20044;-71
2022/05/29 01:48:47;;;;;;;7.85;4.40;;;;;;;3.89;95.45;98454.84;4182105;28;20318;-71
2022/05/29 01:50:54;;;;;;;6.28;3.25;;;;;;;3.87;96.09;98444.22;4183716;28;20107;-71
2022/05/29 01:53:14;;;;;;;7.20;3.80;;;;;;;3.85;96.63;98443.75;4186729;28;20403;-71
2022/05/29 01:55:38;;;;;;;5.22;3.22;;;;;;;3.92;96.18;98444.03;4189426;28;20048;-70
2022/05/29 01:57:43;;;;;;;9.65;4.10;;;;;;;3.88;96.52;98448.53;4201377;27;20458;-70
2022/05/29 01:59:47;;;;;;;5.65;3.65;;;;;;;3.88;96.49;98445.81;4185853;28;20047;-70
2022/05/29 02:01:55;;;;;;;7.03;3.53;;;;;;;3.84;96.16;98450.38;4202329;27;20044;-70
2022/05/29 02:03:58;;;;;;;5.60;3.40;;;;;;;3.83;96.37;98431.53;4201254;28;20460;-70
2022/05/29 02:06:04;;;;;;;8.45;3.70;;;;;;;3.80;95.86;98432.19;4201137;27;20637;-70
2022/05/29 02:08:30;;;;;;;4.25;3.05;;;;;;;3.78;96.09;98432.53;4199256;28;20036;-71
2022/05/29 02:10:46;;;;;;;5.97;3.33;;;;;;;3.80;96.46;98429.47;4187162;28;20413;-70
2022/05/29 02:13:13;;;;;;;8.77;3.47;;;;;;;3.78;96.27;98427.06;4202238;27;20062;-70
2022/05/29 02:15:20;;;;;;;5.63;3.15;;;;;;;3.78;96.23;98432.53;4185304;28;20052;-70
2022/05/29 02:17:26;;;;;;;5.53;3.30;;;;;;;3.77;96.06;98430.13;4186297;28;20044;-70
2022/05/29 02:19:46;;;;;;;5.32;2.97;;;;;;;3.79;95.96;98430.59;4185535;28;20045;-71
2022/05/29 02:21:57;;;;;;;8.68;3.15;;;;;;;3.84;96.03;98428.47;4185153;28;20053;-70
2022/05/29 02:24:00;;;;;;;5.82;3.05;;;;;;;3.86;94.19;98423.44;4185851;28;20183;-70
2022/05/29 02:26:04;;;;;;;6.00;2.83;;;;;;;3.86;93.99;98425.38;4185996;28;20068;-72
2022/05/29 02:28:21;;;;;;;5.80;2.97;;;;;;;3.94;92.54;98421.78;4186227;28;20028;-71
2022/05/29 02:30:28;;;;;;;8.98;2.97;;;;;;;4.00;92.78;98416.91;4184958;28;20051;-71
2022/05/29 02:32:48;;;;;;;7.50;2.97;;;;;;;4.05;91.38;98419.41;4201454;27;20289;-70
2022/05/29 02:34:57;;;;;;;4.57;3.05;;;;;;;4.02;91.64;98420.09;4200848;28;20042;-70
2022/05/29 02:37:07;;;;;;;7.90;3.53;;;;;;;4.04;92.45;98426.03;4186575;28;20431;-70
2022/05/29 02:39:13;;;;;;;4.32;3.00;;;;;;;4.03;93.42;98414.28;4190019;28;20399;-70
2022/05/29 02:41:28;;;;;;;6.60;3.70;;;;;;;4.03;92.52;98408.81;4187129;28;20614;-70
2022/05/29 02:43:35;;;;;;;7.75;3.28;;;;;;;4.04;93.08;98412.34;4186792;28;20375;-70
2022/05/29 02:45:47;;;;;;;5.10;2.78;;;;;;;4.08;91.62;98416.03;4185191;28;20043;-70
2022/05/29 02:47:54;;;;;;;4.63;3.28;;;;;;;4.11;90.60;98404.38;4186063;28;20079;-70
2022/05/29 02:50:09;;;;;;;9.07;3.42;;;;;;;4.17;89.58;98405.78;4185977;28;20047;-70
2022/05/29 02:52:14;;;;;;;6.82;3.28;;;;;;;4.17;89.89;98394.84;4188863;28;20045;-70
2022/05/29 02:54:23;;;;;;;4.80;2.65;;;;;;;4.31;88.33;98395.34;4190547;28;20035;-71
2022/05/29 02:56:24;;;;;;;5.50;2.95;;;;;;;4.35;87.36;98392.72;4189242;28;20123;-70
2022/05/29 02:58:27;;;;;;;6.03;3.05;;;;;;;4.40;87.99;98400.72;4189444;28;20063;-70
2022/05/29 03:00:37;;;;;;;6.03;2.65;;;;;;;4.41;86.43;98394.91;4189408;28;20407;-70
2022/05/29 03:03:06;;;;;;;4.68;2.95;;;;;;;4.43;86.54;98395.34;4189641;28;20044;-70
2022/05/29 03:05:21;;;;;;;5.70;2.97;;;;;;;4.43;86.51;98394.56;4197512;27;20040;-70
2022/05/29 03:07:39;;;;;;;5.80;2.70;;;;;;;4.41;86.33;98397.63;4188573;28;20048;-70
2022/05/29 03:09:58;;;;;;;7.22;2.70;;;;;;;4.38;86.33;98384.59;4188374;28;20086;-70
2022/05/29 03:11:58;;;;;;;5.78;2.83;;;;;;;4.34;86.81;98382.91;4189145;28;20037;-70
2022/05/29 03:14:11;;;;;;;5.10;2.72;;;;;;;4.31;86.83;98394.53;4189068;28;20167;-70
2022/05/29 03:16:31;;;;;;;6.28;2.50;;;;;;;4.22;87.02;98389.97;4191527;28;20052;-71
2022/05/29 03:18:37;;;;;;;5.47;3.00;;;;;;;4.29;85.84;98383.09;4188402;28;20040;-70
2022/05/29 03:20:46;;;;;;;5.57;2.60;;;;;;;4.32;84.93;98388.72;4189131;28;20199;-70
2022/05/29 03:23:13;;;;;;;5.85;2.88;;;;;;;4.32;84.24;98385.97;4190196;28;20090;-70
2022/05/29 03:25:28;;;;;;;9.02;2.85;;;;;;;4.14;84.49;98385.38;4203550;27;20048;-71
2022/05/29 03:27:39;;;;;;;5.22;2.97;;;;;;;4.00;84.56;98393.06;4205264;27;20092;-71
2022/05/29 03:29:50;;;;;;;6.20;3.42;;;;;;;3.82;87.08;98386.97;4188335;28;20384;-71
2022/05/29 03:31:50;;;;;;;7.05;3.30;;;;;;;3.78;86.69;98388.75;4188579;28;20303;-71
2022/05/29 03:33:51;;;;;;;6.93;3.20;;;;;;;3.69;87.96;98385.28;4189211;28;20044;-71
2022/05/29 03:35:51;;;;;;;11.48;3.40;;;;;;;3.71;87.06;98387.69;4188542;28;20041;-71
2022/05/29 03:37:52;;;;;;;7.32;3.00;;;;;;;3.70;87.57;98388.81;4188625;28;20067;-71
2022/05/29 03:39:53;;;;;;;6.50;3.17;;;;;;;3.54;88.73;98388.63;4188448;28;20053;-71
2022/05/29 03:41:53;;;;;;;4.80;3.17;;;;;;;3.52;88.10;98385.44;4203970;27;20430;-71
2022/05/29 03:43:54;;;;;;;5.15;2.92;;;;;;;3.51;87.50;98389.31;4192505;27;20032;-71
2022/05/29 03:45:54;;;;;;;7.13;2.58;;;;;;;3.43;88.11;98388.22;4194683;28;20169;-71
2022/05/29 03:47:55;;;;;;;4.35;3.13;;;;;;;3.38;88.02;98383.75;4204454;27;20244;-71
2022/05/29 03:49:56;;;;;;;5.50;3.03;;;;;;;3.26;89.03;98394.63;4202307;27;20535;-71
2022/05/29 03:51:57;;;;;;;5.18;3.35;;;;;;;3.20;89.91;98387.75;4188476;28;20094;-71
2022/05/29 03:53:57;;;;;;;8.25;2.97;;;;;;;3.15;90.98;98392.63;4189112;28;20106;-71
2022/05/29 03:55:58;;;;;;;6.80;3.03;;;;;;;3.14;90.67;98391.00;4188395;27;20448;-71
2022/05/29 03:57:58;;;;;;;7.03;3.30;;;;;;;3.17;90.97;98387.63;4192437;28;20087;-71
2022/05/29 03:59:58;;;;;;;5.63;3.03;;;;;;;3.18;91.31;98387.28;4202004;27;20052;-71
2022/05/29 04:01:59;;;;;;;7.55;3.42;;;;;;;3.20;90.83;98385.00;4203938;27;20046;-71
2022/05/29 04:03:59;;;;;;;6.75;3.22;;;;;;;3.26;90.68;98388.34;4203508;27;20388;-71
2022/05/29 04:05:59;;;;;;;4.50;3.00;;;;;;;3.37;89.04;98386.81;4202184;28;20487;-71
2022/05/29 04:12:37;;;;;;;7.60;3.38;;;;;;;3.63;87.47;98381.94;4188540;28;20047;-71
2022/05/29 04:14:40;;;;;;;6.57;3.40;;;;;;;3.61;87.90;98376.00;4188221;28;20419;-71
2022/05/29 04:16:41;;;;;;;5.25;3.10;;;;;;;3.58;88.42;98375.91;4194991;27;20048;-71
2022/05/29 04:18:41;;;;;;;5.82;3.10;;;;;;;3.57;87.91;98372.38;4187776;28;20040;-71
2022/05/29 04:20:42;;;;;;;5.68;3.30;;;;;;;3.61;87.91;98375.22;4191849;28;20051;-71
2022/05/29 04:22:43;;;;;;;7.68;3.03;;;;;;;3.74;86.64;98371.41;4202870;27;20491;-71
2022/05/29 04:24:43;;;;;;;4.82;2.80;;;;;;;3.81;87.32;98376.34;4204075;27;20036;-71
2022/05/29 04:26:44;;;;;;;7.35;3.40;;;;;;;3.82;87.39;98367.00;4187784;28;20090;-71
2022/05/29 04:28:44;;;;;;;3.78;3.38;;;;;;;3.88;87.68;98366.44;4187171;28;20116;-71
2022/05/29 04:30:45;;;;;;;4.95;3.08;;;;;;;3.92;88.54;98375.59;4188274;28;20452;-71
2022/05/29 04:33:00;;;;;;;4.93;2.95;;;;;;;3.95;90.03;98369.44;4188115;28;20060;-71
2022/05/29 04:35:00;;;;;;;4.03;2.80;;;;;;;4.07;88.30;98368.69;4202564;27;20055;-71
2022/05/29 04:37:00;;;;;;;6.45;2.78;;;;;;;4.15;86.76;98369.75;4203015;27;20527;-71
2022/05/29 04:39:01;;;;;;;4.85;2.90;;;;;;;4.28;87.04;98363.13;4200191;28;20044;-71
2022/05/29 04:41:06;;;;;;;6.40;3.03;;;;;;;4.37;87.00;98366.56;4192114;28;20321;-71
2022/05/29 04:43:07;;;;;;;5.18;2.78;;;;;;;4.51;85.34;98367.06;4202968;27;20048;-71
2022/05/29 04:45:07;;;;;;;6.05;2.70;;;;;;;4.64;84.73;98365.13;4195793;27;20067;-71
2022/05/29 04:47:09;;;;;;;4.68;2.58;;;;;;;4.77;84.32;98358.50;4187780;28;20123;-71
2022/05/29 04:49:09;;;;;;;5.70;3.10;;;;;;;4.90;84.06;98356.56;4186685;28;20040;-71
2022/05/29 04:51:10;;;;;;;5.78;3.05;;;;;;;5.03;83.44;98354.59;4187548;28;20515;-71
2022/05/29 04:53:11;;;;;;;3.83;2.45;;;;;;;5.17;82.83;98354.25;4188089;28;20045;-71
2022/05/29 04:55:11;;;;;;;8.63;3.08;;;;;;;5.24;82.84;98352.53;4187526;28;20036;-71
2022/05/29 04:57:12;;;;;;;9.80;2.63;;;;;;;5.32;85.39;98359.84;4187701;28;20048;-71
2022/05/29 04:59:12;;;;;;;3.95;2.47;;;;;;;5.44;83.78;98352.72;4194076;28;20429;-71
2022/05/29 05:01:12;;;;;;;4.25;2.47;;;;;;;5.54;85.30;98352.22;4203181;27;20076;-71
2022/05/29 05:03:12;;;;;;;5.38;2.97;;;;;;;5.61;85.96;98360.66;4201220;27;20412;-71
2022/05/29 05:05:14;;;;;;;8.32;2.60;;;;;;;5.62;85.74;98354.03;4203156;27;20499;-71
2022/05/29 05:07:14;;;;;;;5.78;3.00;;;;;;;5.72;85.46;98352.75;4193916;28;20051;-71
2022/05/29 05:09:15;;;;;;;6.00;2.67;;;;;;;5.79;86.12;98352.94;4196495;27;20041;-71
2022/05/29 05:11:15;;;;;;;7.32;2.80;;;;;;;5.86;86.82;98347.66;4187433;28;20396;-71
2022/05/29 05:13:16;;;;;;;5.93;2.42;;;;;;;5.91;86.27;98340.00;4186666;28;20397;-71
2022/05/29 05:15:17;;;;;;;9.05;3.25;;;;;;;6.03;86.95;98338.31;4187451;28;20053;-71
2022/05/29 05:17:17;;;;;;;5.40;2.50;;;;;;;6.13;86.45;98343.34;4189981;28;20059;-71
2022/05/29 05:19:17;;;;;;;7.53;3.05;;;;;;;6.26;85.99;98333.06;4196308;28;20040;-71
2022/05/29 05:21:18;;;;;;;6.05;2.55;;;;;;;6.28;85.55;98333.50;4186073;28;20067;-71
2022/05/29 05:23:18;;;;;;;3.47;2.08;;;;;;;6.35;85.83;98330.94;4186747;28;20124;-71
2022/05/29 05:25:19;;;;;;;4.63;2.30;;;;;;;6.40;86.07;98325.97;4187105;28;20140;-71
2022/05/29 05:27:19;;;;;;;5.53;2.08;;;;;;;6.46;86.01;98321.81;4192982;28;20480;-71
2022/05/29 05:29:21;;;;;;;7.63;2.85;;;;;;;6.58;86.66;98328.38;4200792;27;20476;-71
2022/05/29 05:31:21;;;;;;;6.03;3.13;;;;;;;6.70;87.16;98323.59;4187722;28;20432;-71
2022/05/29 05:33:21;;;;;;;4.43;2.55;;;;;;;6.84;87.24;98327.81;4186921;28;20510;-71
2022/05/29 05:35:22;;;;;;;5.03;2.63;;;;;;;6.95;85.74;98323.34;4186867;28;20327;-71
2022/05/29 05:37:22;;;;;;;2.85;2.17;;;;;;;7.10;86.60;98330.78;4187409;28;20059;-71
2022/05/29 05:39:23;;;;;;;8.43;2.88;;;;;;;7.22;86.82;98327.94;4190662;28;20472;-71
2022/05/29 05:41:23;;;;;;;8.13;2.55;;;;;;;7.32;85.45;98321.84;4187146;28;20040;-71
2022/05/29 05:43:24;;;;;;;7.30;2.60;;;;;;;7.36;82.90;98319.16;4092136;28;20057;-71
2022/05/29 05:45:24;;;;;;;6.60;3.13;;;;;;;7.51;82.86;98321.06;4184213;28;20410;-71
2022/05/29 05:47:24;;;;;;;5.88;2.40;;;;;;;7.61;83.27;98311.44;4186903;28;20472;-71
2022/05/29 05:49:25;;;;;;;6.22;2.50;;;;;;;7.77;83.21;98311.34;4185681;28;20127;-71
2022/05/29 05:51:25;;;;;;;5.18;2.65;;;;;;;7.87;82.10;98313.53;4186560;28;20490;-71
2022/05/29 05:53:26;;;;;;;6.90;2.38;;;;;;;8.00;81.65;98314.97;4186839;28;20076;-71
2022/05/29 05:55:26;;;;;;;9.38;4.15;;;;;;;8.10;81.82;98308.84;4186634;28;20074;-71
2022/05/29 05:57:27;;;;;;;7.18;2.50;;;;;;;8.23;81.72;98314.19;4187853;28;20041;-71
2022/05/29 05:59:27;;;;;;;4.78;2.92;;;;;;;8.32;81.46;98318.31;4200887;27;20044;-71
2022/05/29 06:01:27;;;;;;;5.28;2.45;;;;;;;8.26;78.55;98319.75;4189275;28;20079;-71
2022/05/29 06:03:28;;;;;;;6.97;3.00;;;;;;;8.35;80.00;98316.78;4186412;28;20032;-71
2022/05/29 06:05:28;;;;;;;7.85;2.30;;;;;;;8.40;80.06;98322.03;4193344;28;20041;-71
2022/05/29 06:07:28;;;;;;;7.28;2.33;;;;;;;8.49;79.99;98322.56;4202078;28;20097;-71
2022/05/29 06:09:29;;;;;;;5.40;2.70;;;;;;;8.57;78.57;98320.72;4192599;27;20164;-71
2022/05/29 06:11:29;;;;;;;6.43;2.58;;;;;;;8.52;77.57;98310.78;4192499;28;20314;-71
2022/05/29 06:13:30;;;;;;;5.30;2.97;;;;;;;8.68;79.52;98324.44;4188251;28;20036;-71
2022/05/29 06:15:32;;;;;;;5.75;2.45;;;;;;;8.76;78.06;98315.13;4186429;28;20044;-71
2022/05/29 06:17:32;;;;;;;6.35;2.50;;;;;;;8.99;77.76;98328.88;4186497;28;20055;-71
2022/05/29 06:19:33;;;;;;;9.52;3.00;;;;;;;9.18;76.46;98314.19;4196567;28;20337;-71
2022/05/29 06:21:34;;;;;;;8.18;2.30;;;;;;;8.92;76.05;98317.75;4202284;27;20052;-71
2022/05/29 06:23:35;;;;;;;5.68;2.08;;;;;;;8.88;76.72;98314.94;4200110;27;20032;-70
2022/05/29 06:25:39;;;;;;;6.07;2.60;;;;;;;8.80;76.57;98315.19;4186445;28;20036;-71
2022/05/29 06:27:41;;;;;;;8.98;2.35;;;;;;;8.89;76.77;98326.78;4186458;28;20047;-71
2022/05/29 06:29:41;;;;;;;4.43;2.17;;;;;;;8.77;75.93;98318.69;4185478;28;20045;-71
2022/05/29 06:31:42;;;;;;;6.78;2.67;;;;;;;8.72;76.86;98317.84;4186084;28;20523;-71
2022/05/29 06:33:42;;;;;;;7.70;3.40;;;;;;;8.84;77.04;98316.03;4186328;28;20403;-71
2022/05/29 06:35:42;;;;;;;6.72;3.50;;;;;;;9.03;75.55;98320.69;4186576;28;20254;-71
2022/05/29 06:37:43;;;;;;;4.95;3.42;;;;;;;9.15;74.79;98309.41;4188035;28;20072;-71
2022/05/29 06:39:43;;;;;;;6.93;2.30;;;;;;;9.27;75.82;98317.50;4200429;27;20127;-71
2022/05/29 06:41:43;;;;;;;6.15;2.45;;;;;;;9.39;75.81;98311.72;4201227;27;20495;-71
2022/05/29 06:43:44;;;;;;;9.15;2.38;;;;;;;9.53;76.13;98324.94;4201959;27;20066;-71
2022/05/29 06:45:44;;;;;;;6.35;3.00;;;;;;;9.64;75.24;98320.34;4188697;27;20045;-71
2022/05/29 06:47:45;;;;;;;5.10;2.20;;;;;;;9.74;75.17;98314.13;4186244;28;20044;-71
2022/05/29 06:49:51;;;;;;;5.78;2.35;;;;;;;9.82;71.37;98310.28;4185223;28;20041;-71
2022/05/29 06:51:52;;;;;;;6.55;2.70;;;;;;;9.82;73.25;98306.72;4186199;28;20066;-71
2022/05/29 06:53:55;;;;;;;7.72;2.40;;;;;;;9.96;72.33;98309.66;4186189;28;20620;-71
2022/05/29 06:55:56;;;;;;;6.32;2.67;;;;;;;9.96;72.43;98308.88;4186014;28;20094;-71
2022/05/29 06:57:56;;;;;;;6.20;2.75;;;;;;;10.03;72.28;98314.47;4192733;28;20533;-71
2022/05/29 07:07:01;;;;;;;4.68;2.53;;;;;;;9.52;71.52;98310.34;4190461;27;20078;-71
2022/05/29 07:09:04;;;;;;;6.55;2.83;;;;;;;9.73;72.28;98306.22;4185403;28;20161;-71
2022/05/29 07:11:20;;;;;;;5.50;2.95;;;;;;;9.85;69.71;98311.53;4186254;28;20324;-71
2022/05/29 07:13:22;;;;;;;5.15;2.30;;;;;;;10.05;70.94;98299.09;4199476;27;20392;-71
2022/05/29 07:15:22;;;;;;;2.97;1.90;;;;;;;10.07;70.38;98316.09;4197629;28;20214;-71
2022/05/29 07:17:23;;;;;;;4.75;1.92;;;;;;;10.25;69.42;98313.53;4188555;28;20138;-72
2022/05/29 07:19:25;;;;;;;5.38;2.30;;;;;;;10.24;67.43;98311.16;4183081;28;20043;-72
2022/05/29 07:21:26;;;;;;;5.15;2.00;;;;;;;10.33;68.48;98315.19;4181959;28;20128;-71
2022/05/29 07:23:26;;;;;;;2.72;1.83;;;;;;;10.47;68.68;98327.59;4190325;27;20489;-71
2022/05/29 07:25:27;;;;;;;5.10;1.80;;;;;;;10.45;68.19;98314.16;4189383;28;20135;-71
2022/05/29 07:27:27;;;;;;;3.15;1.70;;;;;;;10.49;67.36;98309.44;4193083;28;20040;-71
2022/05/29 07:29:28;;;;;;;3.35;2.10;;;;;;;10.47;67.61;98324.81;4186352;28;20040;-71
2022/05/29 07:31:29;;;;;;;4.47;2.05;;;;;;;10.47;68.62;98319.28;4190473;28;20032;-72
2022/05/29 07:33:30;;;;;;;7.82;3.22;;;;;;;10.37;67.64;98312.50;4184438;28;20377;-72
2022/05/29 07:35:30;;;;;;;6.53;1.70;;;;;;;10.29;68.79;98321.88;4186426;27;20593;-72
2022/05/29 07:37:30;;;;;;;4.68;2.10;;;;;;;10.37;69.25;98315.25;4190414;28;20131;-72
2022/05/29 07:39:36;;;;;;;4.15;1.80;;;;;;;10.41;67.41;98311.34;4195291;28;20072;-72
2022/05/29 07:43:56;;;;;;;2.15;1.67;;;;;;;10.36;68.38;98328.28;4190920;28;20043;-72
2022/05/29 07:45:57;;;;;;;3.10;1.88;;;;;;;10.44;69.20;98328.38;4198792;28;20032;-72
2022/05/29 07:47:58;;;;;;;3.90;1.88;;;;;;;10.34;68.52;98325.13;4189684;28;20098;-71
2022/05/29 07:49:59;;;;;;;3.08;1.77;;;;;;;10.53;68.40;98324.09;4186786;28;20048;-71
2022/05/29 07:51:59;;;;;;;5.28;1.92;;;;;;;10.91;67.12;98322.81;4191990;28;20040;-71
2022/05/29 07:54:00;;;;;;;2.97;2.10;;;;;;;10.75;65.14;98315.97;4190812;28;20052;-71
2022/05/29 07:56:02;;;;;;;4.03;1.52;;;;;;;10.83;66.29;98320.38;4188714;28;20107;-71
2022/05/29 07:58:07;;;;;;;3.15;1.55;;;;;;;11.10;65.71;98312.69;4187756;28;20040;-71
2022/05/29 08:00:11;;;;;;;3.78;1.50;;;;;;;11.27;64.88;98320.31;4188232;28;20036;-72
2022/05/29 08:02:11;;;;;;;3.83;1.58;;;;;;;11.27;64.93;98317.53;4190792;28;20064;-71
2022/05/29 08:04:11;;;;;;;5.60;2.92;;;;;;;11.50;65.36;98311.72;4187339;28;20040;-71
2022/05/29 08:06:12;;;;;;;3.90;2.08;;;;;;;11.67;65.73;98321.31;4188079;28;20097;-71
2022/05/29 08:08:13;;;;;;;3.63;2.25;;;;;;;11.58;64.79;98310.56;4194133;27;20043;-71
2022/05/29 08:10:15;;;;;;;3.00;1.70;;;;;;;11.42;64.59;98316.44;4197163;28;20373;-71
2022/05/29 08:12:15;;;;;;;3.42;1.70;;;;;;;10.78;65.87;98321.53;4191044;28;20411;-71
2022/05/29 08:14:16;;;;;;;4.00;1.90;;;;;;;10.69;66.84;98321.09;4188292;28;20037;-71
2022/05/29 08:16:17;;;;;;;3.65;1.40;;;;;;;10.80;64.66;98321.16;4191073;28;20079;-71
2022/05/29 08:18:17;;;;;;;4.88;1.50;;;;;;;10.57;65.76;98326.88;4190500;27;20376;-71
2022/05/29 08:20:18;;;;;;;3.42;1.30;;;;;;;10.63;65.38;98319.84;4188441;28;20021;-71
2022/05/29 08:22:18;;;;;;;3.70;2.08;;;;;;;10.90;64.94;98315.69;4189616;28;20032;-71
2022/05/29 08:31:15;;;;;;;6.13;1.70;;;;;;;10.82;65.87;98310.50;4192523;28;20043;-71
2022/05/29 08:33:26;;;;;;;2.42;1.58;;;;;;;10.89;65.02;98318.84;4189418;28;20072;-71
2022/05/29 08:35:27;;;;;;;2.92;1.38;;;;;;;10.84;65.05;98308.94;4194971;28;20127;-71
2022/05/29 08:37:28;;;;;;;3.38;1.52;;;;;;;10.62;64.59;98313.50;4188963;28;20131;-71
2022/05/29 08:39:29;;;;;;;4.07;1.80;;;;;;;10.62;65.33;98307.19;4187753;28;20476;-71
2022/05/29 08:41:51;;;;;;;3.08;1.50;;;;;;;10.51;67.18;98317.34;4187498;28;20052;-71
2022/05/29 08:44:05;;;;;;;4.35;1.45;;;;;;;10.53;66.05;98315.81;4190776;28;20381;-71
2022/05/29 08:46:17;;;;;;;3.50;1.17;;;;;;;10.84;66.11;98306.19;4188008;28;20388;-71
2022/05/29 08:48:23;;;;;;;3.90;1.52;;;;;;;11.19;65.33;98302.06;4185965;28;20103;-71
2022/05/29 08:50:49;;;;;;;3.20;1.60;;;;;;;11.27;64.01;98309.25;4185246;28;20048;-71
2022/05/29 08:52:57;;;;;;;3.55;1.80;;;;;;;11.30;62.48;98307.66;4185840;28;20044;-71
2022/05/29 08:55:27;;;;;;;5.60;1.85;;;;;;;11.57;62.89;98303.44;4191947;27;20037;-71
2022/05/29 08:57:56;;;;;;;3.85;2.22;;;;;;;11.54;62.53;98302.25;4182170;28;20044;-72
2022/05/29 09:00:03;;;;;;;4.28;1.77;;;;;;;11.91;60.88;98297.66;4190773;28;20530;-71
2022/05/29 09:02:18;;;;;;;3.00;1.50;;;;;;;11.90;60.67;98296.88;4186197;28;20393;-72
2022/05/29 09:04:28;;;;;;;6.30;1.80;;;;;;;12.20;61.58;98293.00;4184941;28;20541;-71
2022/05/29 09:06:33;;;;;;;4.65;1.63;;;;;;;12.35;60.11;98292.63;4191761;27;20131;-71
2022/05/29 09:08:40;;;;;;;3.78;1.60;;;;;;;12.59;58.59;98293.06;4192335;28;20055;-71
2022/05/29 09:10:47;;;;;;;3.65;1.63;;;;;;;12.18;60.68;98298.16;4187180;28;20052;-71
2022/05/29 09:12:51;;;;;;;3.20;1.50;;;;;;;12.02;57.65;98293.75;4188047;28;20048;-71
2022/05/29 09:15:09;;;;;;;3.17;1.60;;;;;;;12.22;60.14;98291.41;4186058;28;20044;-71
2022/05/29 09:17:19;;;;;;;4.65;2.10;;;;;;;12.37;60.35;98286.69;4188464;27;20056;-71
2022/05/29 09:19:38;;;;;;;9.07;2.13;;;;;;;12.25;58.73;98279.56;4193991;28;20059;-71
2022/05/29 09:22:06;;;;;;;2.70;1.50;;;;;;;12.52;58.97;98279.19;4189236;28;20356;-71
2022/05/29 09:24:22;;;;;;;4.82;2.58;;;;;;;12.78;61.94;98278.78;4189827;27;20072;-71
2022/05/29 09:26:22;;;;;;;3.65;2.08;;;;;;;12.30;61.16;98272.81;4188045;28;20535;-72
2022/05/29 09:28:34;;;;;;;3.03;1.98;;;;;;;12.11;63.71;98289.81;4192393;28;20049;-71
2022/05/29 09:30:35;;;;;;;6.20;1.77;;;;;;;11.67;62.71;98280.56;4186437;28;20083;-71
2022/05/29 09:32:46;;;;;;;3.95;2.13;;;;;;;11.68;63.75;98281.34;4187220;28;20504;-71
2022/05/29 09:35:00;;;;;;;5.05;2.13;;;;;;;11.47;63.76;98268.19;4193421;28;20052;-71
2022/05/29 09:37:23;;;;;;;3.40;1.73;;;;;;;11.56;64.55;98268.59;4190638;28;20484;-71
2022/05/29 09:39:41;;;;;;;4.10;2.05;;;;;;;11.52;63.79;98263.06;4184990;28;20052;-71
2022/05/29 09:41:48;;;;;;;3.50;1.58;;;;;;;11.76;60.33;98271.88;4185448;28;20055;-71
2022/05/29 09:44:04;;;;;;;3.35;1.92;;;;;;;11.91;60.09;98256.88;4185248;28;20434;-71
2022/05/29 09:46:22;;;;;;;3.75;1.58;;;;;;;11.93;57.77;98257.28;4185870;28;20040;-72
2022/05/29 09:50:54;;;;;;;7.10;1.88;;;;;;;12.54;59.87;98249.03;4186053;28;20470;-71
2022/05/29 09:52:54;;;;;;;3.65;1.60;;;;;;;12.60;57.21;98250.25;4185369;28;20098;-71
2022/05/29 09:55:30;;;;;;;3.45;1.50;;;;;;;12.71;58.04;98242.69;4191790;27;20511;-71
2022/05/29 09:57:40;;;;;;;3.85;2.53;;;;;;;12.96;57.52;98239.09;4201231;27;20791;-71
2022/05/29 09:59:44;;;;;;;4.20;1.73;;;;;;;13.02;56.58;98241.06;4184293;28;20040;-71
2022/05/29 10:01:46;;;;;;;3.13;1.77;;;;;;;12.86;56.60;98238.72;4187505;28;20447;-71
2022/05/29 10:03:53;;;;;;;2.33;1.58;;;;;;;12.83;57.75;98236.75;4186115;28;20093;-71
2022/05/29 10:06:09;;;;;;;2.28;1.67;;;;;;;12.80;57.72;98234.75;4185959;28;20048;-71
2022/05/29 10:08:32;;;;;;;4.95;1.75;;;;;;;12.54;58.11;98237.94;4183983;28;20343;-71
2022/05/29 10:10:34;;;;;;;4.80;1.90;;;;;;;12.55;57.78;98237.53;4185719;28;20049;-71
2022/05/29 10:12:45;;;;;;;5.60;2.80;;;;;;;12.56;57.51;98244.66;4189135;28;20044;-71
2022/05/29 10:14:46;;;;;;;1.75;1.48;;;;;;;12.31;58.35;98238.31;4185609;28;20094;-72
2022/05/29 10:16:49;;;;;;;2.70;1.70;;;;;;;12.00;60.37;98245.44;4186597;28;20426;-72
2022/05/29 10:18:49;;;;;;;1.70;1.45;;;;;;;11.85;60.56;98244.59;4179633;28;21279;-71